Dades meteomassalio
Diari Summary for Febrer 26, 2018 Units:  English    Metric   Both
« Previous Day
Next Day »
Diari Semanal Mensual Anual Personalitzat
  Maxima: Minima: Mijana:
Temperatura: TemperatureC °F -3.3 °F 5.6 °F
Rosada: DewpointC °F -10.5 °F -4.9 °F
Humitat: Humidity % 30 % 49 %
Velocitat del vent: WindSpeedKMH mph 0.0 mph 12.6 mph
Racha vent: WindSpeedGustKMH mph - -
Vent:- - WNW
Pressio: PressurehPa in 1006.3 in -
Pluja: 0.0 in    
Historical Graphs
 
 
Tabular Data for Febrer 26, 2018
Time Temperature Dew Point Pressure Wind Wind Speed Wind Gust Humidity Rainfall Rate (Hourly) solar Conditions
TemperatureC °F DewpointC °F PressurehPa in Calm     Humidity % HourlyPrecipMM in SolarRadiationWatts/m^2 W/m2 Conditions
00:04 7.2 °F -3.3 °F 1012.4 in WNW 24.1 mph 24.1 mph 47 % 0.0 in 0.0 W/m2 CLR
00:09 7.2 °F -3.3 °F 1012.4 in NW 22.2 mph 22.2 mph 47 % 0.0 in 0.0 W/m2 CLR
00:14 7.2 °F -3.3 °F 1012.4 in WNW 27.8 mph 27.8 mph 47 % 0.0 in 0.0 W/m2 CLR
00:19 7.2 °F -3.1 °F 1012.8 in WNW 18.5 mph 18.5 mph 48 % 0.0 in 0.0 W/m2 CLR
00:24 6.7 °F -3.6 °F 1012.8 in NW 16.7 mph 16.7 mph 48 % 0.0 in 0.0 W/m2 CLR
00:29 6.7 °F -3.6 °F 1012.8 in NW 14.5 mph 14.5 mph 48 % 0.0 in 0.0 W/m2 CLR
00:34 6.1 °F -4.1 °F 1012.8 in WNW 18.5 mph 18.5 mph 48 % 0.0 in 0.0 W/m2 CLR
00:39 5.6 °F -4.3 °F 1012.8 in NW 20.4 mph 20.4 mph 49 % 0.0 in 0.0 W/m2 CLR
00:44 5.0 °F -4.8 °F 1012.8 in WNW 16.7 mph 16.7 mph 49 % 0.0 in 0.0 W/m2 CLR
00:49 5.0 °F -4.6 °F 1012.8 in WNW 16.7 mph 16.7 mph 50 % 0.0 in 0.0 W/m2 CLR
00:54 5.0 °F -4.6 °F 1012.8 in NW 16.1 mph 16.1 mph 50 % 0.0 in 0.0 W/m2 CLR
00:59 4.4 °F -5.1 °F 1012.8 in WNW 16.7 mph 16.7 mph 50 % 0.0 in 0.0 W/m2 CLR
01:04 3.9 °F -5.3 °F 1012.8 in NW 22.2 mph 22.2 mph 51 % 0.0 in 0.0 W/m2 CLR
01:09 4.4 °F -4.8 °F 1012.8 in WNW 22.2 mph 22.2 mph 51 % 0.0 in 0.0 W/m2 CLR
01:14 6.1 °F -3.3 °F 1012.8 in NW 16.1 mph 16.1 mph 51 % 0.0 in 0.0 W/m2 CLR
01:19 6.7 °F -2.8 °F 1012.8 in NW 18.5 mph 18.5 mph 51 % 0.0 in 0.0 W/m2 CLR
01:24 6.7 °F -2.8 °F 1012.8 in NW 20.9 mph 20.9 mph 51 % 0.0 in 0.0 W/m2 CLR
01:29 6.7 °F -2.8 °F 1012.8 in WNW 18.5 mph 18.5 mph 51 % 0.0 in 0.0 W/m2 CLR
01:34 6.7 °F -2.5 °F 1012.8 in West 18.5 mph 18.5 mph 52 % 0.0 in 0.0 W/m2 CLR
01:39 6.1 °F -2.8 °F 1012.8 in West 14.8 mph 14.8 mph 53 % 0.0 in 0.0 W/m2 CLR
01:44 5.6 °F -3.3 °F 1012.8 in WNW 18.5 mph 18.5 mph 53 % 0.0 in 0.0 W/m2 CLR
01:49 5.0 °F -3.6 °F 1012.4 in WNW 13.0 mph 13.0 mph 54 % 0.0 in 0.0 W/m2 CLR
01:54 4.4 °F -3.8 °F 1012.8 in West 7.4 mph 7.4 mph 55 % 0.0 in 0.0 W/m2 CLR
01:59 3.9 °F -4.3 °F 1012.8 in West 14.8 mph 14.8 mph 55 % 0.0 in 0.0 W/m2 CLR
02:04 5.0 °F -3.3 °F 1012.8 in West 11.3 mph 11.3 mph 55 % 0.0 in 0.0 W/m2 CLR
02:09 5.6 °F -2.6 °F 1012.8 in West 14.8 mph 14.8 mph 56 % 0.0 in 0.0 W/m2 CLR
02:14 5.6 °F -2.6 °F 1012.8 in WNW 9.3 mph 9.3 mph 56 % 0.0 in 0.0 W/m2 CLR
02:19 5.0 °F -2.8 °F 1012.8 in West 9.7 mph 9.7 mph 57 % 0.0 in 0.0 W/m2 CLR
02:24 5.0 °F -2.8 °F 1012.4 in West 16.7 mph 16.7 mph 57 % 0.0 in 0.0 W/m2 CLR
02:30 4.4 °F -3.1 °F 1012.4 in West 18.5 mph 18.5 mph 58 % 0.0 in 0.0 W/m2 CLR
02:36 4.4 °F -3.1 °F 1012.4 in West 22.5 mph 22.5 mph 58 % 0.0 in 0.0 W/m2 CLR
02:41 4.4 °F -2.9 °F 1012.4 in West 11.1 mph 11.1 mph 59 % 0.0 in 0.0 W/m2 CLR
02:46 5.0 °F -2.3 °F 1012.8 in West 18.5 mph 18.5 mph 59 % 0.0 in 0.0 W/m2 CLR
02:51 5.0 °F -2.3 °F 1012.4 in West 11.1 mph 11.1 mph 59 % 0.0 in 0.0 W/m2 CLR
02:56 4.4 °F -2.9 °F 1012.4 in West 9.3 mph 9.3 mph 59 % 0.0 in 0.0 W/m2 CLR
03:01 3.9 °F -3.4 °F 1012.4 in WNW 11.3 mph 11.3 mph 59 % 0.0 in 0.0 W/m2 CLR
03:06 3.3 °F -4.2 °F 1012.4 in WNW 14.8 mph 14.8 mph 58 % 0.0 in 0.0 W/m2 CLR
03:11 2.8 °F -4.7 °F 1012.4 in WNW 13.0 mph 13.0 mph 58 % 0.0 in 0.0 W/m2 CLR
03:16 2.2 °F -5.2 °F 1012.4 in NW 9.7 mph 9.7 mph 58 % 0.0 in 0.0 W/m2 CLR
03:22 2.2 °F -5.2 °F 1012.4 in NNW 12.9 mph 12.9 mph 58 % 0.0 in 0.0 W/m2 CLR
03:27 1.7 °F -5.7 °F 1012.4 in Calm     58 % 0.0 in 0.0 W/m2 CLR
03:32 1.1 °F -6.2 °F 1012.4 in NW 11.1 mph 11.1 mph 58 % 0.0 in 0.0 W/m2 CLR
03:37 1.1 °F -6.2 °F 1012.4 in WNW 9.3 mph   58 % 0.0 in 0.0 W/m2 CLR
03:42 1.1 °F -6.2 °F 1012.4 in Calm     58 % 0.0 in 0.0 W/m2 CLR
03:47 0.6 °F -6.6 °F 1012.4 in Calm     59 % 0.0 in 0.0 W/m2 CLR
03:52 0.6 °F -6.6 °F 1012.4 in NW 13.0 mph 13.0 mph 59 % 0.0 in 0.0 W/m2 CLR
03:57 0.6 °F -6.6 °F 1012.4 in Calm     59 % 0.0 in 0.0 W/m2 CLR
04:02 0.6 °F -6.6 °F 1012.4 in Calm     59 % 0.0 in 0.0 W/m2 CLR
04:07 0.0 °F -6.8 °F 1012.4 in Calm     60 % 0.0 in 0.0 W/m2 CLR
04:12 0.6 °F -6.3 °F 1012.4 in Calm     60 % 0.0 in 0.0 W/m2 CLR
04:17 0.6 °F -6.3 °F 1012.4 in Calm     60 % 0.0 in 0.0 W/m2 CLR
04:22 1.1 °F -5.6 °F 1012.4 in Calm     61 % 0.0 in 0.0 W/m2 CLR
04:27 1.1 °F -5.6 °F 1012.4 in Calm     61 % 0.0 in 0.0 W/m2 CLR
04:32 1.1 °F -5.6 °F 1012.4 in Calm     61 % 0.0 in 0.0 W/m2 CLR
04:37 0.6 °F -6.1 °F 1012.4 in Calm     61 % 0.0 in 0.0 W/m2 CLR
04:42 0.6 °F -6.1 °F 1012.4 in Calm     61 % 0.0 in 0.0 W/m2 CLR
04:47 0.0 °F -6.4 °F 1012.4 in Calm     62 % 0.0 in 0.0 W/m2 CLR
04:52 0.0 °F -6.4 °F 1012.4 in Calm     62 % 0.0 in 0.0 W/m2 CLR
04:57 0.0 °F -6.2 °F 1012.4 in Calm     63 % 0.0 in 0.0 W/m2 CLR
05:02 0.0 °F -6.2 °F 1012.4 in Calm     63 % 0.0 in 0.0 W/m2 CLR
05:07 0.0 °F -6.0 °F 1012.4 in Calm     64 % 0.0 in 0.0 W/m2 CLR
05:12 0.0 °F -6.0 °F 1012.4 in Calm     64 % 0.0 in 0.0 W/m2 CLR
05:17 -0.6 °F -6.3 °F 1012.4 in NNE 5.6 mph 5.6 mph 65 % 0.0 in 0.0 W/m2 CLR
05:22 -0.6 °F -6.3 °F 1012.4 in Calm     65 % 0.0 in 0.0 W/m2 CLR
05:27 -0.6 °F -6.1 °F 1012.4 in Calm     66 % 0.0 in 0.0 W/m2 CLR
05:32 -0.6 °F -6.1 °F 1012.4 in Calm     66 % 0.0 in 0.0 W/m2 CLR
05:37 0.0 °F -5.6 °F 1012.4 in Calm     66 % 0.0 in 0.0 W/m2 CLR
05:42 0.0 °F -5.4 °F 1012.4 in Calm     67 % 0.0 in 0.0 W/m2 CLR
05:47 0.0 °F -5.2 °F 1012.4 in Calm     68 % 0.0 in 0.0 W/m2 CLR
05:52 -0.6 °F -5.9 °F 1012.4 in Calm     67 % 0.0 in 0.0 W/m2 CLR
05:57 -0.6 °F -5.6 °F 1012.4 in NW 9.7 mph 9.7 mph 69 % 0.0 in 0.0 W/m2 CLR
06:02 -0.6 °F -5.6 °F 1012.4 in NW 7.4 mph 7.4 mph 69 % 0.0 in 0.0 W/m2 CLR
06:07 -1.1 °F -6.1 °F 1012.4 in Calm     69 % 0.0 in 0.0 W/m2 CLR
06:12 -1.1 °F -6.1 °F 1012.4 in Calm     69 % 0.0 in 0.0 W/m2 CLR
06:17 -1.7 °F -6.6 °F 1012.4 in Calm     69 % 0.0 in 0.0 W/m2 CLR
06:22 -2.2 °F -6.9 °F 1012.4 in Calm     70 % 0.0 in 0.0 W/m2 CLR
06:27 -2.2 °F -6.8 °F 1012.4 in Calm     71 % 0.0 in 0.0 W/m2 CLR
06:32 -2.2 °F -6.8 °F 1012.4 in Calm     71 % 0.0 in 0.0 W/m2 CLR
06:37 -2.2 °F -6.4 °F 1012.1 in Calm     73 % 0.0 in 0.0 W/m2 CLR
06:42 -2.2 °F -6.4 °F 1012.1 in Calm     73 % 0.0 in 0.0 W/m2 CLR
06:47 -2.8 °F -6.6 °F 1012.1 in Calm     75 % 0.0 in 0.0 W/m2 CLR
06:52 -2.8 °F -6.6 °F 1012.1 in Calm     75 % 0.0 in 0.0 W/m2 CLR
06:57 -2.8 °F -6.6 °F 1012.1 in Calm     75 % 0.0 in 0.0 W/m2 CLR
07:02 -2.8 °F -6.6 °F 1012.1 in Calm     75 % 0.0 in 0.0 W/m2 CLR
07:07 -3.3 °F -6.9 °F 1012.1 in Calm     76 % 0.0 in 0.0 W/m2 CLR
07:12 -3.3 °F -6.6 °F 1012.1 in Calm     78 % 0.0 in 0.0 W/m2 CLR
07:17 -2.8 °F -5.9 °F 1012.1 in Calm     79 % 0.0 in 0.0 W/m2 CLR
07:22 -3.3 °F -6.4 °F 1012.1 in Calm     79 % 0.0 in 0.0 W/m2 CLR
07:27 -3.3 °F -6.4 °F 1012.1 in Calm     79 % 0.0 in 0.0 W/m2 CLR
07:32 -3.3 °F -6.4 °F 1012.1 in Calm     79 % 0.0 in 0.0 W/m2 OVC
07:37 -2.8 °F -5.7 °F 1012.1 in Calm     80 % 0.0 in 0.0 W/m2 OVC
07:42 -2.8 °F -5.6 °F 1012.1 in Calm     81 % 0.0 in 7.0 W/m2 OVC
07:47 -2.8 °F -5.4 °F 1012.1 in Calm     82 % 0.0 in 9.0 W/m2 BKN
07:52 -3.3 °F -5.9 °F 1012.1 in Calm     82 % 0.0 in 14.0 W/m2 BKN
07:57 -3.3 °F -5.9 °F 1012.4 in Calm     82 % 0.0 in 18.0 W/m2 BKN
08:02 -3.3 °F -5.8 °F 1012.4 in Calm     83 % 0.0 in 21.0 W/m2 BKN
08:07 -3.3 °F -5.8 °F 1012.4 in Calm     83 % 0.0 in 26.0 W/m2 BKN
08:12 -3.3 °F -5.8 °F 1012.4 in Calm     83 % 0.0 in 33.0 W/m2 BKN
08:17 -2.8 °F -5.3 °F 1012.1 in Calm     83 % 0.0 in 44.0 W/m2 BKN
08:22 -2.8 °F -5.4 °F 1012.4 in Calm     82 % 0.0 in 54.0 W/m2 SCT
08:27 -2.8 °F -5.6 °F 1012.4 in Calm     81 % 0.0 in 63.0 W/m2 SCT
08:32 -2.8 °F -5.6 °F 1012.4 in Calm     81 % 0.0 in 70.0 W/m2 FEW
08:37 -2.8 °F -5.7 °F 1012.4 in Calm     80 % 0.0 in 84.0 W/m2 FEW
08:42 -2.2 °F -5.2 °F 1012.4 in Calm     80 % 0.0 in 113.0 W/m2 FEW
08:47 -1.7 °F -4.8 °F 1012.4 in Calm     79 % 0.0 in 130.0 W/m2 CLR
08:52 -1.7 °F -5.2 °F 1012.4 in Calm     77 % 0.0 in 151.0 W/m2 CLR
08:58 -1.7 °F -5.2 °F 1012.4 in Calm     77 % 0.0 in 128.0 W/m2 CLR
09:02 -1.1 °F -4.6 °F 1012.1 in Calm     77 % 0.0 in 142.0 W/m2 CLR
09:08 -1.1 °F -4.8 °F 1012.1 in Calm     76 % 0.0 in 202.0 W/m2 CLR
09:17 -0.6 °F -4.6 °F 1012.4 in Calm     74 % 0.0 in 241.0 W/m2 CLR
09:23 0.0 °F -4.6 °F 1012.4 in Calm     71 % 0.0 in 258.0 W/m2 CLR
09:28 0.0 °F -5.2 °F 1012.4 in Calm     68 % 0.0 in 272.0 W/m2 CLR
09:33 0.6 °F -5.1 °F 1012.1 in Calm     66 % 0.0 in 292.0 W/m2 CLR
09:38 1.1 °F -4.7 °F 1012.4 in Calm     65 % 0.0 in 306.0 W/m2 CLR
09:43 2.2 °F -4.3 °F 1012.4 in Calm     62 % 0.0 in 320.0 W/m2 CLR
09:48 3.3 °F -3.9 °F 1012.4 in WNW 5.6 mph 5.6 mph 59 % 0.0 in 334.0 W/m2 CLR
09:53 4.4 °F -3.3 °F 1012.4 in NW 3.7 mph 3.7 mph 57 % 0.0 in 352.0 W/m2 CLR
09:58 5.0 °F -3.1 °F 1012.4 in WNW 20.4 mph 20.4 mph 56 % 0.0 in 366.0 W/m2 CLR
10:03 5.6 °F -2.8 °F 1012.4 in WNW 18.5 mph 18.5 mph 55 % 0.0 in 380.0 W/m2 CLR
10:08 6.1 °F -2.3 °F 1012.4 in NW 17.7 mph 17.7 mph 55 % 0.0 in 394.0 W/m2 CLR
10:13 6.1 °F -2.5 °F 1012.4 in NW 18.5 mph 18.5 mph 54 % 0.0 in 410.0 W/m2 CLR
10:18 6.1 °F -2.8 °F 1012.4 in WNW 18.5 mph 18.5 mph 53 % 0.0 in 420.0 W/m2 CLR
10:24 6.1 °F -2.8 °F 1012.4 in West 9.7 mph 9.7 mph 53 % 0.0 in 438.0 W/m2 CLR
10:29 6.7 °F -2.5 °F 1012.4 in West 5.6 mph 5.6 mph 52 % 0.0 in 450.0 W/m2 CLR
10:34 6.7 °F -2.5 °F 1012.4 in NNE 14.8 mph 14.8 mph 52 % 0.0 in 464.0 W/m2 CLR
10:39 7.2 °F -2.0 °F 1012.4 in NNW 18.5 mph 18.5 mph 52 % 0.0 in 478.0 W/m2 CLR
10:44 7.2 °F -2.3 °F 1012.4 in West 13.0 mph 13.0 mph 51 % 0.0 in 490.0 W/m2 CLR
10:49 7.2 °F -2.5 °F 1012.1 in NW 18.5 mph 18.5 mph 50 % 0.0 in 501.0 W/m2 CLR
10:54 7.2 °F -2.3 °F 1012.1 in West 16.7 mph 16.7 mph 51 % 0.0 in 512.0 W/m2 CLR
10:59 7.8 °F -2.0 °F 1012.1 in NW 14.5 mph 14.5 mph 50 % 0.0 in 527.0 W/m2 CLR
11:04 7.8 °F -2.3 °F 1012.1 in NW 14.8 mph 14.8 mph 49 % 0.0 in 534.0 W/m2 CLR
11:09 7.8 °F -2.3 °F 1012.1 in West 11.1 mph 11.1 mph 49 % 0.0 in 547.0 W/m2 CLR
11:14 8.3 °F -1.8 °F 1011.7 in NW 18.5 mph 18.5 mph 49 % 0.0 in 557.0 W/m2 CLR
11:19 8.9 °F -1.0 °F 1011.7 in NW 18.5 mph 18.5 mph 50 % 0.0 in 568.0 W/m2 CLR
11:24 8.9 °F -1.6 °F 1012.1 in West 3.7 mph 3.7 mph 48 % 0.0 in 577.0 W/m2 CLR
11:29 8.9 °F -1.8 °F 1011.7 in NW 16.7 mph 16.7 mph 47 % 0.0 in 584.0 W/m2 CLR
11:34 8.9 °F -1.8 °F 1011.7 in West 5.6 mph 5.6 mph 47 % 0.0 in 591.0 W/m2 CLR
11:39 8.9 °F -1.6 °F 1011.7 in Calm   0.3 mph 48 % 0.0 in 603.0 W/m2 CLR
11:44 9.4 °F -1.6 °F 1011.7 in WNW 16.7 mph 16.7 mph 46 % 0.0 in 608.0 W/m2 CLR
11:49 9.4 °F -1.3 °F 1011.7 in WNW 14.8 mph 14.8 mph 47 % 0.0 in 613.0 W/m2 CLR
11:54 9.4 °F -1.9 °F 1011.7 in West 20.9 mph 20.9 mph 45 % 0.0 in 621.0 W/m2 CLR
11:59 10.0 °F -1.1 °F 1011.4 in West 18.5 mph 18.5 mph 46 % 0.0 in 629.0 W/m2 CLR
12:04 10.0 °F -1.4 °F 1011.4 in West 3.7 mph 3.7 mph 45 % 0.0 in 633.0 W/m2 CLR
12:09 10.6 °F -0.9 °F 1011.4 in WNW 20.4 mph 20.4 mph 45 % 0.0 in 640.0 W/m2 CLR
12:14 10.6 °F -1.2 °F 1011.4 in NW 20.4 mph 20.4 mph 44 % 0.0 in 643.0 W/m2 CLR
12:19 10.6 °F -0.9 °F 1011.4 in WNW 13.0 mph 13.0 mph 45 % 0.0 in 652.0 W/m2 CLR
12:24 10.6 °F -1.5 °F 1011.4 in WNW 22.2 mph 22.2 mph 43 % 0.0 in 657.0 W/m2 CLR
12:29 10.6 °F -1.8 °F 1011.1 in NW 16.7 mph 16.7 mph 42 % 0.0 in 663.0 W/m2 CLR
12:34 10.6 °F -1.5 °F 1011.1 in WNW 18.5 mph 18.5 mph 43 % 0.0 in 663.0 W/m2 CLR
12:39 11.1 °F -1.3 °F 1011.1 in WNW 18.5 mph 18.5 mph 42 % 0.0 in 664.0 W/m2 CLR
12:44 11.1 °F -1.0 °F 1011.1 in NW 14.8 mph 14.8 mph 43 % 0.0 in 671.0 W/m2 CLR
12:49 11.1 °F -1.7 °F 1011.1 in NW 22.2 mph 22.2 mph 41 % 0.0 in 671.0 W/m2 CLR
12:54 11.1 °F -1.3 °F 1010.7 in WNW 14.8 mph 14.8 mph 42 % 0.0 in 668.0 W/m2 CLR
12:59 11.1 °F -1.0 °F 1010.7 in NW 18.5 mph 18.5 mph 43 % 0.0 in 673.0 W/m2 CLR
13:04 11.7 °F -1.5 °F 1010.7 in WNW 18.5 mph 18.5 mph 40 % 0.0 in 675.0 W/m2 CLR
13:09 11.7 °F -1.5 °F 1010.7 in NNW 18.5 mph 18.5 mph 40 % 0.0 in 682.0 W/m2 CLR
13:14 12.2 °F -1.0 °F 1010.7 in NW 14.8 mph 14.8 mph 40 % 0.0 in 684.0 W/m2 CLR
13:19 12.2 °F -1.3 °F 1010.7 in NNW 22.2 mph 22.2 mph 39 % 0.0 in 680.0 W/m2 CLR
13:24 11.7 °F -2.2 °F 1010.4 in NNW 25.7 mph 25.7 mph 38 % 0.0 in 684.0 W/m2 CLR
13:29 11.7 °F -1.8 °F 1010.4 in NNW 18.5 mph 18.5 mph 39 % 0.0 in 677.0 W/m2 CLR
13:34 11.7 °F -2.2 °F 1010.0 in NNW 18.5 mph 18.5 mph 38 % 0.0 in 677.0 W/m2 CLR
13:39 11.7 °F -2.2 °F 1010.0 in NNW 22.2 mph 22.2 mph 38 % 0.0 in 675.0 W/m2 CLR
13:44 11.7 °F -1.8 °F 1010.0 in NW 20.4 mph 20.4 mph 39 % 0.0 in 670.0 W/m2 CLR
13:49 11.7 °F -1.8 °F 1010.0 in NW 22.2 mph 22.2 mph 39 % 0.0 in 671.0 W/m2 CLR
13:54 12.2 °F -1.7 °F 1009.7 in NNW 24.1 mph 24.1 mph 38 % 0.0 in 671.0 W/m2 CLR
13:59 12.2 °F -1.7 °F 1009.7 in NNW 18.5 mph 18.5 mph 38 % 0.0 in 664.0 W/m2 CLR
14:04 12.2 °F -1.7 °F 1009.4 in WNW 16.7 mph 16.7 mph 38 % 0.0 in 659.0 W/m2 CLR
14:09 12.2 °F -2.1 °F 1009.4 in NW 14.8 mph 14.8 mph 37 % 0.0 in 656.0 W/m2 CLR
14:14 12.2 °F -1.7 °F 1009.4 in NNW 18.5 mph 18.5 mph 38 % 0.0 in 652.0 W/m2 CLR
14:19 12.2 °F -2.1 °F 1009.4 in NW 16.7 mph 16.7 mph 37 % 0.0 in 647.0 W/m2 CLR
14:24 12.2 °F -1.3 °F 1009.0 in NNW 24.1 mph 24.1 mph 39 % 0.0 in 636.0 W/m2 CLR
14:29 12.2 °F -1.7 °F 1009.0 in NW 24.1 mph 24.1 mph 38 % 0.0 in 631.0 W/m2 CLR
14:34 12.2 °F -1.7 °F 1009.0 in NNW 22.2 mph 22.2 mph 38 % 0.0 in 626.0 W/m2 CLR
14:39 12.2 °F -2.1 °F 1009.0 in WNW 24.1 mph 24.1 mph 37 % 0.0 in 615.0 W/m2 CLR
14:44 12.2 °F -1.7 °F 1008.7 in NW 22.5 mph 22.5 mph 38 % 0.0 in 612.0 W/m2 CLR
14:49 12.2 °F -2.1 °F 1008.7 in NW 14.8 mph 14.8 mph 37 % 0.0 in 608.0 W/m2 CLR
14:54 12.8 °F -2.7 °F 1008.4 in NW 22.2 mph 22.2 mph 34 % 0.0 in 605.0 W/m2 CLR
14:59 12.2 °F -2.8 °F 1008.4 in WNW 18.5 mph 18.5 mph 35 % 0.0 in 582.0 W/m2 CLR
15:04 12.8 °F -2.7 °F 1008.4 in West 18.5 mph 18.5 mph 34 % 0.0 in 582.0 W/m2 CLR
15:05 12.8 °F -3.1 °F 1008.4 in NW 18.5 mph 18.5 mph 33 % 0.0 in 582.0 W/m2 CLR
15:10 12.8 °F -3.1 °F 1008.4 in North 20.9 mph 20.9 mph 33 % 0.0 in 575.0 W/m2 CLR
15:15 13.3 °F -3.1 °F 1008.4 in North 25.9 mph 25.9 mph 32 % 0.0 in 563.0 W/m2 CLR
15:20 13.3 °F -3.1 °F 1008.4 in NNW 27.8 mph 27.8 mph 32 % 0.0 in 552.0 W/m2 CLR
15:25 13.3 °F -3.1 °F 1008.0 in NW 25.9 mph 25.9 mph 32 % 0.0 in 541.0 W/m2 CLR
15:30 13.3 °F -3.4 °F 1008.0 in NW 22.2 mph 22.2 mph 31 % 0.0 in 531.0 W/m2 CLR
15:35 13.3 °F -3.4 °F 1008.0 in North 27.8 mph 27.8 mph 31 % 0.0 in 517.0 W/m2 CLR
15:40 13.3 °F -3.4 °F 1008.0 in NNW 25.9 mph 25.9 mph 31 % 0.0 in 503.0 W/m2 CLR
15:45 13.3 °F -3.4 °F 1007.7 in NW 24.1 mph 24.1 mph 31 % 0.0 in 497.0 W/m2 CLR
15:50 13.3 °F -3.4 °F 1007.7 in NNW 27.8 mph 27.8 mph 31 % 0.0 in 485.0 W/m2 CLR
15:55 12.8 °F -3.9 °F 1007.7 in North 20.4 mph 20.4 mph 31 % 0.0 in 473.0 W/m2 CLR
16:00 12.8 °F -3.9 °F 1007.3 in NW 24.1 mph 24.1 mph 31 % 0.0 in 461.0 W/m2 CLR
16:05 13.3 °F -3.4 °F 1007.3 in WNW 22.2 mph 22.2 mph 31 % 0.0 in 452.0 W/m2 CLR
16:10 13.3 °F -3.1 °F 1007.3 in NNW 27.8 mph 27.8 mph 32 % 0.0 in 432.0 W/m2 CLR
16:15 13.3 °F -3.1 °F 1007.3 in NNW 24.1 mph 24.1 mph 32 % 0.0 in 417.0 W/m2 CLR
16:20 13.3 °F -3.1 °F 1007.3 in NNW 25.9 mph 25.9 mph 32 % 0.0 in 406.0 W/m2 CLR
16:25 12.8 °F -2.7 °F 1007.3 in North 27.8 mph 27.8 mph 34 % 0.0 in 380.0 W/m2 CLR
16:30 12.8 °F -3.1 °F 1007.0 in North 27.8 mph 27.8 mph 33 % 0.0 in 373.0 W/m2 CLR
16:35 12.8 °F -2.7 °F 1007.0 in NNW 25.9 mph 25.9 mph 34 % 0.0 in 353.0 W/m2 CLR
16:40 12.8 °F -2.3 °F 1007.0 in NNW 20.4 mph 20.4 mph 35 % 0.0 in 336.0 W/m2 CLR
16:45 12.8 °F -3.1 °F 1007.0 in North 37.0 mph 37.0 mph 33 % 0.0 in 330.0 W/m2 CLR
16:50 12.8 °F -3.1 °F 1007.0 in North 27.8 mph 27.8 mph 33 % 0.0 in 309.0 W/m2 CLR
16:55 12.8 °F -3.1 °F 1007.0 in NNW 29.6 mph 29.6 mph 33 % 0.0 in 292.0 W/m2 CLR
17:00 12.8 °F -2.7 °F 1006.7 in North 35.2 mph 35.2 mph 34 % 0.0 in 279.0 W/m2 CLR
17:05 12.2 °F -3.2 °F 1007.0 in North 25.9 mph 25.9 mph 34 % 0.0 in 258.0 W/m2 CLR
17:10 11.7 °F -3.7 °F 1007.0 in NNW 18.5 mph 18.5 mph 34 % 0.0 in 243.0 W/m2 CLR
17:15 11.7 °F -3.7 °F 1007.0 in North 24.1 mph 24.1 mph 34 % 0.0 in 227.0 W/m2 CLR
17:20 11.7 °F -3.7 °F 1007.0 in North 17.7 mph 17.7 mph 34 % 0.0 in 206.0 W/m2 CLR
17:25 11.7 °F -3.3 °F 1006.7 in North 18.5 mph 18.5 mph 35 % 0.0 in 188.0 W/m2 CLR
17:44 11.1 °F -3.8 °F 1006.7 in NE 22.5 mph 22.5 mph 35 % 0.0 in 125.0 W/m2 CLR
17:45 11.1 °F -3.8 °F 1006.7 in NW 14.8 mph 14.8 mph 35 % 0.0 in 121.0 W/m2 CLR
17:50 11.1 °F -4.6 °F 1006.7 in NNW 18.5 mph 18.5 mph 33 % 0.0 in 105.0 W/m2 CLR
17:55 11.1 °F -4.2 °F 1006.7 in North 16.1 mph 16.1 mph 34 % 0.0 in 91.0 W/m2 CLR
18:00 11.1 °F -4.6 °F 1006.3 in NNW 19.3 mph 19.3 mph 33 % 0.0 in 77.0 W/m2 FEW
18:05 11.1 °F -5.0 °F 1006.7 in NNW 18.5 mph 18.5 mph 32 % 0.0 in 60.0 W/m2 SCT
18:10 11.1 °F -5.0 °F 1006.7 in NNW 12.9 mph 12.9 mph 32 % 0.0 in 49.0 W/m2 SCT
18:15 10.6 °F -5.5 °F 1006.7 in NW 13.0 mph 13.0 mph 32 % 0.0 in 42.0 W/m2 BKN
18:20 10.6 °F -5.9 °F 1006.7 in North 18.5 mph 18.5 mph 31 % 0.0 in 30.0 W/m2 BKN
18:25 10.6 °F -5.9 °F 1006.7 in NNW 14.5 mph 14.5 mph 31 % 0.0 in 21.0 W/m2 BKN
18:30 10.6 °F -6.3 °F 1006.7 in NNW 16.7 mph 16.7 mph 30 % 0.0 in 16.0 W/m2 BKN
18:35 10.0 °F -5.9 °F 1006.7 in Calm     32 % 0.0 in 14.0 W/m2 BKN
18:40 9.4 °F -6.9 °F 1007.0 in NNW 16.7 mph 16.7 mph 31 % 0.0 in 9.0 W/m2 BKN
18:45 9.4 °F -7.3 °F 1007.0 in NW 22.2 mph 22.2 mph 30 % 0.0 in 5.0 W/m2 OVC
18:50 9.4 °F -7.3 °F 1007.0 in North 18.5 mph 18.5 mph 30 % 0.0 in 0.0 W/m2 OVC
18:55 9.4 °F -7.3 °F 1007.3 in NW 18.5 mph 18.5 mph 30 % 0.0 in 0.0 W/m2 OVC
19:00 8.9 °F -7.8 °F 1007.0 in NNW 9.3 mph 9.3 mph 30 % 0.0 in 0.0 W/m2 CLR
19:05 8.3 °F -8.3 °F 1007.3 in NW 18.5 mph 18.5 mph 30 % 0.0 in 0.0 W/m2 CLR
19:10 7.8 °F -8.7 °F 1007.3 in NNW 29.6 mph 29.6 mph 30 % 0.0 in 0.0 W/m2 CLR
19:15 8.3 °F -8.3 °F 1007.3 in North 19.3 mph 19.3 mph 30 % 0.0 in 0.0 W/m2 CLR
19:20 8.3 °F -8.3 °F 1007.7 in NNW 20.4 mph 20.4 mph 30 % 0.0 in 0.0 W/m2 CLR
19:25 8.3 °F -8.3 °F 1007.7 in NNW 22.5 mph 22.5 mph 30 % 0.0 in 0.0 W/m2 CLR
19:30 8.3 °F -7.8 °F 1007.7 in West 29.0 mph 29.0 mph 31 % 0.0 in 0.0 W/m2 CLR
19:35 8.3 °F -7.8 °F 1007.7 in NW 11.1 mph 11.1 mph 31 % 0.0 in 0.0 W/m2 CLR
19:40 7.8 °F -8.3 °F 1007.7 in NW 16.7 mph 16.7 mph 31 % 0.0 in 0.0 W/m2 CLR
19:45 7.8 °F -8.3 °F 1007.7 in NW 1.6 mph   31 % 0.0 in 0.0 W/m2 CLR
19:50 6.7 °F -9.3 °F 1007.7 in WNW 7.4 mph 7.4 mph 31 % 0.0 in 0.0 W/m2 CLR
19:55 6.1 °F -9.4 °F 1007.7 in NW 14.8 mph 14.8 mph 32 % 0.0 in 0.0 W/m2 CLR
20:00 6.7 °F -8.9 °F 1007.7 in WSW 1.9 mph 1.9 mph 32 % 0.0 in 0.0 W/m2 CLR
20:05 6.1 °F -9.4 °F 1007.7 in WNW 14.5 mph 14.5 mph 32 % 0.0 in 0.0 W/m2 CLR
20:10 6.1 °F -9.4 °F 1007.7 in West 11.1 mph 11.1 mph 32 % 0.0 in 0.0 W/m2 CLR
20:15 5.6 °F -9.9 °F 1007.7 in Calm     32 % 0.0 in 0.0 W/m2 CLR
20:20 5.6 °F -9.5 °F 1007.7 in WSW 5.6 mph 5.6 mph 33 % 0.0 in 0.0 W/m2 CLR
20:25 5.6 °F -9.1 °F 1007.7 in WNW 9.3 mph 9.3 mph 34 % 0.0 in 0.0 W/m2 CLR
20:30 5.0 °F -9.6 °F 1008.0 in WNW 3.7 mph 3.7 mph 34 % 0.0 in 0.0 W/m2 CLR
20:35 4.4 °F -9.7 °F 1007.7 in NW 1.9 mph 1.9 mph 35 % 0.0 in 0.0 W/m2 CLR
20:40 4.4 °F -9.3 °F 1008.0 in NW 5.6 mph 5.6 mph 36 % 0.0 in 0.0 W/m2 CLR
20:45 3.9 °F -9.8 °F 1008.0 in NW 7.4 mph   36 % 0.0 in 0.0 W/m2 CLR
20:50 3.3 °F -10.3 °F 1008.0 in NW 5.6 mph   36 % 0.0 in 0.0 W/m2 CLR
20:55 3.3 °F -10.0 °F 1008.0 in Calm     37 % 0.0 in 0.0 W/m2 CLR
21:00 2.8 °F -10.5 °F 1008.0 in Calm     37 % 0.0 in 0.0 W/m2 CLR
21:05 2.8 °F -10.5 °F 1008.4 in WNW 1.9 mph   37 % 0.0 in 0.0 W/m2 CLR
21:10 2.8 °F -10.2 °F 1008.4 in WNW 9.3 mph 9.3 mph 38 % 0.0 in 0.0 W/m2 CLR
21:15 2.8 °F -10.2 °F 1008.4 in WNW 13.0 mph 13.0 mph 38 % 0.0 in 0.0 W/m2 CLR
21:20 3.3 °F -10.0 °F 1008.4 in NW 18.5 mph 18.5 mph 37 % 0.0 in 0.0 W/m2 CLR
21:25 4.4 °F -9.0 °F 1008.4 in NW 18.5 mph 18.5 mph 37 % 0.0 in 0.0 W/m2 CLR
21:30 5.6 °F -8.0 °F 1008.7 in NW 16.7 mph 16.7 mph 37 % 0.0 in 0.0 W/m2 CLR
21:35 5.0 °F -8.2 °F 1008.7 in NW 22.2 mph 22.2 mph 38 % 0.0 in 0.0 W/m2 CLR
21:40 5.6 °F -7.7 °F 1008.7 in NW 18.5 mph 18.5 mph 38 % 0.0 in 0.0 W/m2 CLR
21:45 5.6 °F -7.3 °F 1009.0 in NW 22.2 mph 22.2 mph 39 % 0.0 in 0.0 W/m2 CLR
21:50 5.6 °F -7.3 °F 1009.0 in NW 24.1 mph 24.1 mph 39 % 0.0 in 0.0 W/m2 CLR
21:55 5.6 °F -7.0 °F 1009.4 in NNW 18.5 mph 18.5 mph 40 % 0.0 in 0.0 W/m2 CLR
22:00 5.6 °F -7.0 °F 1009.4 in NNW 22.2 mph 22.2 mph 40 % 0.0 in 0.0 W/m2 CLR
22:05 5.0 °F -7.5 °F 1009.4 in NW 22.2 mph 22.2 mph 40 % 0.0 in 0.0 W/m2 CLR
22:10 5.0 °F -7.5 °F 1009.4 in NW 24.1 mph 24.1 mph 40 % 0.0 in 0.0 W/m2 CLR
22:15 5.0 °F -7.5 °F 1009.7 in NW 18.5 mph 18.5 mph 40 % 0.0 in 0.0 W/m2 CLR
22:20 4.4 °F -7.7 °F 1009.4 in NW 18.5 mph 18.5 mph 41 % 0.0 in 0.0 W/m2 CLR
22:25 4.4 °F -7.7 °F 1009.4 in NW 22.2 mph 22.2 mph 41 % 0.0 in 0.0 W/m2 CLR
22:30 4.4 °F -7.7 °F 1009.7 in WNW 20.4 mph 20.4 mph 41 % 0.0 in 0.0 W/m2 CLR
22:35 4.4 °F -7.7 °F 1009.7 in WNW 22.2 mph 22.2 mph 41 % 0.0 in 0.0 W/m2 CLR
22:40 4.4 °F -7.7 °F 1009.7 in WNW 9.7 mph 11.3 mph 41 % 0.0 in 0.0 W/m2 CLR
22:46 4.4 °F -7.7 °F 1010.0 in Calm     41 % 0.0 in 0.0 W/m2 CLR
22:51 4.4 °F -7.7 °F 1010.0 in Calm     41 % 0.0 in 0.0 W/m2 CLR
22:56 3.9 °F -8.2 °F 1010.0 in West 14.8 mph 14.8 mph 41 % 0.0 in 0.0 W/m2 CLR
23:01 3.9 °F -8.2 °F 1010.0 in WNW 18.5 mph 18.5 mph 41 % 0.0 in 0.0 W/m2 CLR
23:06 4.4 °F -7.7 °F 1010.0 in WSW 14.8 mph 14.8 mph 41 % 0.0 in 0.0 W/m2 CLR
23:11 3.9 °F -8.2 °F 1010.0 in WSW 16.1 mph 16.1 mph 41 % 0.0 in 0.0 W/m2 CLR
23:16 3.9 °F -8.2 °F 1010.4 in WSW 13.0 mph 13.0 mph 41 % 0.0 in 0.0 W/m2 CLR
23:21 3.9 °F -7.9 °F 1010.4 in WSW 5.6 mph 5.6 mph 42 % 0.0 in 0.0 W/m2 CLR
23:26 3.9 °F -7.9 °F 1010.4 in NW 8.0 mph 8.0 mph 42 % 0.0 in 0.0 W/m2 CLR
23:31 3.9 °F -7.9 °F 1010.4 in West 16.7 mph 16.7 mph 42 % 0.0 in 0.0 W/m2 CLR
23:36 3.3 °F -8.1 °F 1010.4 in WNW 11.1 mph 11.1 mph 43 % 0.0 in 0.0 W/m2 CLR
23:41 3.3 °F -8.1 °F 1010.7 in WNW 16.7 mph 16.7 mph 43 % 0.0 in 0.0 W/m2 CLR
23:46 2.8 °F -8.6 °F 1010.7 in WNW 16.7 mph 16.7 mph 43 % 0.0 in 0.0 W/m2 CLR
23:51 2.8 °F -8.6 °F 1010.4 in WNW 24.1 mph 24.1 mph 43 % 0.0 in 0.0 W/m2 CLR
23:56 2.8 °F -8.3 °F 1010.4 in West 17.7 mph 17.7 mph 44 % 0.0 in 0.0 W/m2 CLR
Lo Temps de Massalio
Compliments of Weather Underground - 1.25 mb